Sunday, November 23, 2014
01:00 UTC
  |  Log In   |  Register Free
Airport Search:

New Richmond Regional Airport
(KRNH)

New Richmond Regional Airport Diagram
No Airport Diagram Available

FAA data valid effective November 13, 2014 - January 08, 2015 (unless otherwise noted).

 
 
 
 
 
 
 
 
 
 
 
 
 
 

Current Aviation Weather for New Richmond Regional Airport (KRNH)

The most recent METAR observation for KRNH was updated at: 0028
METAR Summary (Translated METAR)
KRNH
230015Z AUTO 16006KT 4SM BR OVC004 01/01 A2964 RMK AO2 T00140014
KOEO
222355Z AUTO 15009KT 4SM BR OVC005 02/02 A2967 RMK AO2 T00160016 10020 20015
(11.6 nm NW from KRNH)
K21D
222350Z AUTO 16008KT 4SM BR OVC004 02/01 A2964 RMK AO2
(16.2 nm SW from KRNH)
TAF Summary (Translated TAF)
KRNH
221740Z 2218/2318 21008KT 3SM BR OVC004 FM222200 18008KT 5SM BR OVC007 FM230600 17008KT 1SM BR OVC003 TEMPO 2308/2312 1/4SM FG VV002 FM231600 20006KT 3SM BR OVC006
  Airport Weather Conditions for KRNH

 Current Weather at RNH
34° F
Fog/Mist
South winds at 8.1 mph
RNH NOAA Radar

Pressure: 29.65 in
Humidity: 100%
Wind: South at 8.1 MPH (7 KT)
Dew Point: 34.3°F
Visibility: 3.00 mi


Airport Weather Forecast for KRNH

Translated METAR and TAF for KRNH
Translated METAR for KRNH (0055 UTC 23 November 2014)
found at http://aviationweather.gov/adds/metars/
 
METAR text: KRNH 230035Z AUTO 15006KT 3SM BR OVC004 02/02 A2964 RMK AO2 T00150015
Conditions at: KRNH (NEW RICHMOND MUN, WI, US) observed 0035 UTC 23 November 2014
Temperature: 1.5°C (35°F)
Dewpoint: 1.5°C (35°F) [RH = 100%]
Pressure (altimeter): 29.64 inches Hg (1003.8 mb)
Winds: from the SSE (150 degrees) at 7 MPH (6 knots; 3.1 m/s)
Visibility: 3 miles (5 km)
Ceiling: 400 feet AGL
Clouds: overcast cloud deck at 400 feet AGL
Weather: BR  (mist)
Translated TAF for KRNH
Forecast for: KRNH (NEW RICHMOND MUN, WI, US)
TAF Text: KRNH 222333Z 2300/2324 18008KT 3SM BR OVC003
Forecast period: 0000 to 0300 UTC 23 November 2014
Forecast type: FROM: standard forecast or significant change
Winds: from the S (180 degrees) at 9 MPH (8 knots; 4.2 m/s)
Visibility: 3 miles (5 km)
Ceiling: 300 feet AGL
Clouds: overcast cloud deck at 300 feet AGL
Weather: BR  (mist)
TAF Text: FM230300 17008KT 1/4SM FG VV001
Forecast period: 0300 to 1200 UTC 23 November 2014
Forecast type: FROM: standard forecast or significant change
Winds: from the S (170 degrees) at 9 MPH (8 knots; 4.2 m/s)
Visibility: 0.25 miles (0.40 km)
Ceiling: indefinite ceiling with vertical visibility of 100 feet AGL
Clouds: obscured sky
Weather: FG  (fog)
TAF Text: FM231200 18008KT 2SM BR OVC003
Forecast period: 1200 to 2000 UTC 23 November 2014
Forecast type: FROM: standard forecast or significant change
Winds: from the S (180 degrees) at 9 MPH (8 knots; 4.2 m/s)
Visibility: 2.00 miles (3.22 km)
Ceiling: 300 feet AGL
Clouds: overcast cloud deck at 300 feet AGL
Weather: BR  (mist)
TAF Text: FM232000 24004KT 4SM -RA BR OVC006
Forecast period: 2000 UTC 23 November 2014 to 0000 UTC 24 November 2014
Forecast type: FROM: standard forecast or significant change
Winds: from the WSW (240 degrees) at 5 MPH (4 knots; 2.1 m/s)
Visibility: 4 miles (6 km)
Ceiling: 600 feet AGL
Clouds: overcast cloud deck at 600 feet AGL
Weather: -RA BR  (light rain, mist)

Find All Airport Services Find A Hotel Find A Rental Car Find A Golf Course Find A Restaurant $100 Hamburger



FBO's on the Field
FBO Company Facility Photos Services Transportation Aviation Fuel Prices: Prices include tax
Catering Weather Repair Courtesy Rental Type 100LL JetA JetA+ MOGAS 8087
 
Griggs Aviation

This FBO has not yet been rated
FS:Independent
Last Updated: Oct-21
Login to update fuel prices
SS:
Contact Griggs AviationMore FBO Information
 
Add another FBO Facility Photos Catering Weather Repair Courtesy Rental Type 100LL JetA JetA+ MOGAS 8087
Services Transportation Aviation Fuel Prices: Prices include tax


model-print
model-print
model-print
model-print